createdAt,value
2023-01-04T00:00:00.385Z,3.1
2023-01-04T00:05:00.278Z,2.3
2023-01-04T00:10:00.340Z,3.3
2023-01-04T00:15:00.257Z,2.7
2023-01-04T00:20:00.357Z,5.3
2023-01-04T00:25:00.311Z,2.9
2023-01-04T00:30:00.390Z,3.3
2023-01-04T00:35:00.384Z,1.3
2023-01-04T00:40:00.337Z,3.5
2023-01-04T00:45:00.338Z,1.2
2023-01-04T00:50:00.426Z,2.0
2023-01-04T00:55:00.266Z,1.9
2023-01-04T01:00:00.377Z,2.2
2023-01-04T01:05:00.276Z,4.7
2023-01-04T01:10:00.366Z,1.8
2023-01-04T01:15:01.160Z,3.5
2023-01-04T01:20:00.262Z,2.1
2023-01-04T01:25:00.335Z,4.5
2023-01-04T01:30:00.324Z,2.3
2023-01-04T01:35:00.270Z,4.2
2023-01-04T01:40:00.470Z,2.7
2023-01-04T01:45:00.427Z,1.9
2023-01-04T01:50:00.339Z,0.3
2023-01-04T01:55:00.391Z,0.2
2023-01-04T02:00:00.373Z,1.5
2023-01-04T02:05:00.316Z,1.2
2023-01-04T02:10:00.331Z,1.2
2023-01-04T02:15:00.409Z,2.3
2023-01-04T02:20:00.304Z,2.8
2023-01-04T02:25:00.289Z,2.1
2023-01-04T02:30:00.360Z,2.6
2023-01-04T02:35:00.347Z,4.0
2023-01-04T02:40:00.377Z,1.4
2023-01-04T02:45:00.281Z,2.7
2023-01-04T02:50:05.283Z,2.2
2023-01-04T02:55:00.298Z,2.5
2023-01-04T03:00:00.367Z,4.5
2023-01-04T03:05:00.366Z,3.5
2023-01-04T03:10:00.364Z,1.5
2023-01-04T03:15:00.532Z,2.9
2023-01-04T03:20:00.414Z,4.0
2023-01-04T03:25:00.295Z,3.3
2023-01-04T03:30:00.378Z,4.5
2023-01-04T03:35:00.323Z,3.7
2023-01-04T03:40:00.382Z,4.7
2023-01-04T03:45:09.924Z,3.6
2023-01-04T03:50:00.346Z,5.1
2023-01-04T03:55:00.325Z,3.1
2023-01-04T04:00:00.443Z,4.4
2023-01-04T04:05:00.353Z,3.9
2023-01-04T04:10:00.412Z,4.0
2023-01-04T04:15:00.370Z,4.9
2023-01-04T04:20:00.327Z,4.3
2023-01-04T04:25:00.270Z,4.3
2023-01-04T04:30:00.396Z,3.8
2023-01-04T04:35:00.288Z,8.8
2023-01-04T04:40:00.346Z,6.7
2023-01-04T04:45:00.288Z,4.5
2023-01-04T04:50:00.465Z,3.7
2023-01-04T04:55:00.353Z,5.8
2023-01-04T05:00:00.356Z,3.6
2023-01-04T05:05:00.293Z,4.7
2023-01-04T05:10:00.344Z,6.5
2023-01-04T05:15:00.331Z,5.5
2023-01-04T05:20:00.336Z,4.7
2023-01-04T05:25:00.322Z,8.2
2023-01-04T05:30:00.347Z,7.2
2023-01-04T05:35:00.393Z,3.6
2023-01-04T05:40:00.343Z,10.3
2023-01-04T05:45:00.305Z,6.9
2023-01-04T05:50:00.336Z,5.2
2023-01-04T05:55:00.355Z,5.1
2023-01-04T06:00:00.273Z,7.4
2023-01-04T06:05:00.347Z,6.0
2023-01-04T06:10:00.346Z,5.4
2023-01-04T06:15:00.340Z,6.0
2023-01-04T06:20:00.286Z,4.9
2023-01-04T06:25:00.296Z,7.1
2023-01-04T06:30:00.362Z,7.6
2023-01-04T06:35:00.328Z,6.5
2023-01-04T06:40:00.336Z,5.3
2023-01-04T06:45:00.277Z,7.2
2023-01-04T06:50:00.353Z,5.5
2023-01-04T06:55:00.293Z,8.4
2023-01-04T07:00:00.357Z,5.3
2023-01-04T07:05:00.452Z,5.5
2023-01-04T07:10:09.683Z,6.2
2023-01-04T07:15:00.331Z,4.2
2023-01-04T07:20:00.294Z,5.6
2023-01-04T07:25:00.312Z,5.3
2023-01-04T07:30:00.321Z,6.8
2023-01-04T07:35:00.323Z,6.7
2023-01-04T07:40:00.330Z,7.8
2023-01-04T07:45:00.329Z,9.7
2023-01-04T07:50:00.385Z,7.4
2023-01-04T07:55:00.320Z,9.4
2023-01-04T08:00:00.363Z,5.7
2023-01-04T08:05:00.739Z,7.8
2023-01-04T08:10:00.355Z,9.5
2023-01-04T08:15:00.329Z,7.2
2023-01-04T08:20:00.331Z,10.3
2023-01-04T08:25:00.345Z,10.2
2023-01-04T08:30:00.433Z,8.3
2023-01-04T08:35:00.283Z,7.7
2023-01-04T08:40:00.344Z,10.3
2023-01-04T08:45:00.477Z,9.6
2023-01-04T08:50:10.176Z,12.9
2023-01-04T08:55:00.617Z,9.8
2023-01-04T09:00:00.315Z,10.9
2023-01-04T09:05:00.589Z,9.6
2023-01-04T09:10:00.322Z,8.5
2023-01-04T09:15:00.384Z,7.7
2023-01-04T09:20:00.272Z,7.5
2023-01-04T09:25:00.272Z,9.0
2023-01-04T09:30:00.347Z,9.3
2023-01-04T09:35:00.285Z,9.6
2023-01-04T09:40:00.330Z,10.3
2023-01-04T09:45:23.456Z,11.4
2023-01-04T09:50:00.393Z,9.4
2023-01-04T09:55:36.759Z,10.1
2023-01-04T10:00:00.314Z,11.9
2023-01-04T10:05:00.419Z,11.6
2023-01-04T10:10:00.367Z,14.2
2023-01-04T10:15:00.278Z,9.1
2023-01-04T10:21:16.125Z,9.0
2023-01-04T10:25:00.361Z,9.1
2023-01-04T10:35:00.736Z,10.4
2023-01-04T10:40:00.721Z,12.7
2023-01-04T10:45:09.292Z,10.1
2023-01-04T10:50:00.729Z,7.6
2023-01-04T11:00:00.500Z,9.7
2023-01-04T11:05:00.515Z,8.7
2023-01-04T11:10:00.486Z,9.1
2023-01-04T11:15:00.479Z,7.8
2023-01-04T11:20:00.525Z,11.0
2023-01-04T11:30:00.565Z,6.8
2023-01-04T11:35:00.515Z,8.8
2023-01-04T11:40:00.562Z,7.5
2023-01-04T11:45:00.478Z,7.7
2023-01-04T11:50:00.547Z,10.3
2023-01-04T11:55:00.485Z,7.8
2023-01-04T12:00:00.520Z,7.5
2023-01-04T12:05:00.519Z,10.6
2023-01-04T12:10:00.681Z,8.5
2023-01-04T12:15:00.646Z,12.1
2023-01-04T12:20:00.494Z,9.6
2023-01-04T12:25:01.339Z,11.0
2023-01-04T12:30:00.545Z,8.1
2023-01-04T12:35:00.522Z,11.2
2023-01-04T12:40:00.542Z,6.8
2023-01-04T12:45:00.508Z,13.3
2023-01-04T12:50:00.526Z,8.0
2023-01-04T12:55:00.636Z,11.6
2023-01-04T13:00:00.544Z,13.2
2023-01-04T13:05:53.899Z,11.7
2023-01-04T13:10:00.607Z,13.0
2023-01-04T13:15:00.535Z,13.6
2023-01-04T13:20:00.523Z,11.0
2023-01-04T13:25:00.739Z,13.2
2023-01-04T13:30:00.641Z,12.8
2023-01-04T13:35:00.528Z,11.8
2023-01-04T13:40:00.693Z,13.0
2023-01-04T13:45:19.433Z,12.2
2023-01-04T13:50:00.535Z,12.7
2023-01-04T13:55:00.474Z,15.0
2023-01-04T14:00:00.628Z,11.1
2023-01-04T14:05:00.736Z,10.5
2023-01-04T14:10:00.521Z,10.7
2023-01-04T14:15:00.683Z,10.9
2023-01-04T14:20:00.541Z,8.6
2023-01-04T14:25:10.459Z,12.4
2023-01-04T14:30:00.518Z,11.5
2023-01-04T14:35:02.495Z,12.1
2023-01-04T14:40:00.506Z,13.7
2023-01-04T14:45:00.674Z,15.0
2023-01-04T14:50:00.513Z,14.2
2023-01-04T14:55:00.516Z,11.8
2023-01-04T15:00:00.523Z,13.5
2023-01-04T15:05:00.468Z,11.3
2023-01-04T15:10:00.524Z,15.1
2023-01-04T15:15:00.468Z,14.2
2023-01-04T15:20:00.754Z,13.8
2023-01-04T15:25:00.574Z,12.1
2023-01-04T15:30:00.573Z,14.0
2023-01-04T15:35:00.564Z,13.4
2023-01-04T15:40:04.084Z,11.4
2023-01-04T15:45:00.549Z,10.9
2023-01-04T15:50:02.542Z,14.6
2023-01-04T15:55:00.563Z,10.8
2023-01-04T16:00:00.572Z,11.1
2023-01-04T16:05:00.544Z,13.4
2023-01-04T16:10:00.806Z,12.4
2023-01-04T16:15:00.623Z,12.0
2023-01-04T16:20:00.548Z,6.3
2023-01-04T16:25:11.809Z,13.1
2023-01-04T16:30:00.532Z,10.3
2023-01-04T16:35:00.534Z,11.9
2023-01-04T16:40:09.303Z,13.6
2023-01-04T16:45:00.539Z,14.3
2023-01-04T16:50:00.508Z,12.1
2023-01-04T16:55:00.564Z,15.1
2023-01-04T17:00:00.585Z,11.7
2023-01-04T17:05:00.556Z,15.5
2023-01-04T17:10:00.566Z,10.8
2023-01-04T17:20:00.540Z,11.1
2023-01-04T17:25:00.526Z,16.3
2023-01-04T17:30:00.539Z,14.3
2023-01-04T17:35:00.551Z,15.6
2023-01-04T17:40:00.620Z,13.2
2023-01-04T17:45:00.501Z,13.9
2023-01-04T17:50:00.537Z,14.1
2023-01-04T17:55:02.548Z,14.4
2023-01-04T18:00:00.573Z,10.9
2023-01-04T18:05:00.516Z,11.3
2023-01-04T18:10:00.548Z,16.3
2023-01-04T18:15:00.550Z,10.7
2023-01-04T18:20:00.544Z,13.3
2023-01-04T18:25:00.545Z,14.4
2023-01-04T18:30:00.515Z,15.7
2023-01-04T18:35:00.540Z,14.2
2023-01-04T18:40:02.561Z,12.8
2023-01-04T18:45:00.497Z,14.3
2023-01-04T18:50:00.532Z,14.2
2023-01-04T18:55:00.513Z,13.1
2023-01-04T19:00:02.538Z,17.5
2023-01-04T19:05:00.524Z,12.1
2023-01-04T19:10:00.555Z,12.2
2023-01-04T19:15:00.607Z,12.0
2023-01-04T19:20:00.567Z,18.5
2023-01-04T19:25:00.486Z,11.9
2023-01-04T19:30:00.492Z,11.1
2023-01-04T19:35:00.573Z,11.0
2023-01-04T19:40:00.506Z,10.1
2023-01-04T19:45:00.474Z,13.3
2023-01-04T19:50:00.589Z,15.1
2023-01-04T19:55:00.477Z,9.2
2023-01-04T20:00:00.517Z,11.6
2023-01-04T20:05:00.540Z,9.7
2023-01-04T20:10:00.480Z,10.6
2023-01-04T20:15:00.515Z,8.1
2023-01-04T20:20:00.535Z,10.4
2023-01-04T20:25:00.483Z,8.4
2023-01-04T20:30:00.520Z,7.4
2023-01-04T20:35:00.486Z,6.6
2023-01-04T20:40:00.492Z,8.1
2023-01-04T20:45:00.490Z,11.8
2023-01-04T20:50:00.549Z,17.3
2023-01-04T20:55:00.539Z,10.4
2023-01-04T21:00:00.374Z,10.6
2023-01-04T21:10:00.521Z,11.4
2023-01-04T21:15:00.565Z,6.1
2023-01-04T21:20:00.436Z,4.0
2023-01-04T21:25:00.542Z,2.4
2023-01-04T21:35:02.424Z,1.9
2023-01-04T21:40:00.658Z,4.6
2023-01-04T21:45:00.578Z,13.2
2023-01-04T21:50:00.589Z,9.8
2023-01-04T21:55:00.521Z,9.9
2023-01-04T22:00:00.592Z,12.5
2023-01-04T22:05:00.593Z,13.0
2023-01-04T22:10:00.549Z,10.9
2023-01-04T22:15:00.542Z,12.8
2023-01-04T22:20:02.557Z,12.8
2023-01-04T22:25:00.557Z,14.7
2023-01-04T22:30:00.630Z,17.1
2023-01-04T22:35:00.564Z,18.3
2023-01-04T22:40:00.651Z,16.1
2023-01-04T22:45:00.557Z,15.6
2023-01-04T22:50:00.538Z,12.5
2023-01-04T22:55:00.580Z,20.5
2023-01-04T23:00:00.669Z,14.1
2023-01-04T23:05:00.537Z,12.3
2023-01-04T23:10:00.620Z,12.3
2023-01-04T23:15:00.648Z,10.5
2023-01-04T23:20:00.546Z,10.9
2023-01-04T23:25:00.472Z,12.3
2023-01-04T23:30:00.607Z,10.1
2023-01-04T23:35:00.524Z,12.4
2023-01-04T23:40:00.623Z,11.7
2023-01-04T23:45:00.532Z,14.5
2023-01-04T23:50:00.560Z,12.2
2023-01-04T23:55:00.502Z,11.8
